Whittier, California
Current Conditions -  °F | °C
As of 12:53 PM on Wednesday 17 Dec 2014 (Local Time) from KFUL Reporting Station
Broken Clouds Broken Clouds  
Wind Chill: 66°   Ceiling: 4200
Heat Index: 66°   Visibility: 10mi
Dew Point: 46°   Wind: 5mph
Humidity: 48%   Direction: NA
Pressure: 30.03"   Gusts: NA
Location:  33.98°N, 118.03°W
Report Text: KFUL 172053Z VRB04KT 10SM SCT031 BKN042 19/08 A3003 RMK AO2 SLP169 T01890078 57008
Loading
Personal Weather Stations






























Interactive Weather Map New forecast layout! Learn more

10-Day Weather Forecast

Advertisements
Track Severe Weather on mobile